Terminal Aerodrome Forecast
Issued by NWS

Home | Current Version | Previous Version | Text Only | Print | Product List | Glossary On
Versions: 1 2 3 4 5 6 7 8 9 10 11 12 13 14
000
FTUS46 KSGX 252217 CCA
TAFONT
TAF COR
KONT 252217Z 2522/2624 22010G18KT 5SM -RA SCT015 BKN025 OVC040
      TEMPO 2522/2601 2SM RA BR
     FM260100 24012G20KT P6SM VCSH SCT015 BKN030 OVC045
     FM260400 25008G15KT P6SM SCT020 BKN035 BKN050
     FM260600 VRB05KT P6SM BKN050
     FM262200 31012KT P6SM SCT050=

USA.gov is the U.S. government's official web portal to all federal, state and local government web resources and services.